sensor_id;sensor_type;location;lat;lon;timestamp;noise_LAeq;noise_LA_min;noise_LA_max;noise_LA01;noise_LA95
76767;Laerm;65707;52.362;6.588;2023-05-20T00:01:03;37.80;31.14;44.34;;
76767;Laerm;65707;52.362;6.588;2023-05-20T00:03:33;37.34;31.25;44.44;;
76767;Laerm;65707;52.362;6.588;2023-05-20T00:05:59;38.71;32.03;53.06;;
76767;Laerm;65707;52.362;6.588;2023-05-20T00:08:29;37.71;31.58;44.71;;
76767;Laerm;65707;52.362;6.588;2023-05-20T00:10:56;36.66;31.29;42.97;;
76767;Laerm;65707;52.362;6.588;2023-05-20T00:13:22;36.83;31.29;42.90;;
76767;Laerm;65707;52.362;6.588;2023-05-20T00:15:50;38.04;31.48;50.34;;
76767;Laerm;65707;52.362;6.588;2023-05-20T00:18:17;36.23;31.18;42.35;;
76767;Laerm;65707;52.362;6.588;2023-05-20T00:20:44;36.39;30.93;42.72;;
76767;Laerm;65707;52.362;6.588;2023-05-20T00:23:10;36.36;31.31;43.07;;
76767;Laerm;65707;52.362;6.588;2023-05-20T00:25:38;36.50;31.46;42.91;;
76767;Laerm;65707;52.362;6.588;2023-05-20T00:28:09;69.60;32.14;87.23;;
76767;Laerm;65707;52.362;6.588;2023-05-20T00:30:40;37.20;31.65;47.90;;
76767;Laerm;65707;52.362;6.588;2023-05-20T00:33:07;52.00;31.54;76.96;;
76767;Laerm;65707;52.362;6.588;2023-05-20T00:35:38;70.61;32.18;85.05;;
76767;Laerm;65707;52.362;6.588;2023-05-20T00:38:08;36.79;31.47;43.02;;
76767;Laerm;65707;52.362;6.588;2023-05-20T00:40:36;36.52;31.31;43.32;;
76767;Laerm;65707;52.362;6.588;2023-05-20T00:43:04;36.57;31.33;42.32;;
76767;Laerm;65707;52.362;6.588;2023-05-20T00:45:33;37.41;31.14;50.54;;
76767;Laerm;65707;52.362;6.588;2023-05-20T00:48:01;36.39;31.06;42.40;;
76767;Laerm;65707;52.362;6.588;2023-05-20T00:50:28;36.68;30.86;43.73;;
76767;Laerm;65707;52.362;6.588;2023-05-20T00:53:02;36.84;31.28;45.12;;
76767;Laerm;65707;52.362;6.588;2023-05-20T00:55:32;36.45;31.05;43.13;;
76767;Laerm;65707;52.362;6.588;2023-05-20T00:58:05;36.59;30.89;43.21;;
76767;Laerm;65707;52.362;6.588;2023-05-20T01:00:33;37.53;31.13;45.88;;
76767;Laerm;65707;52.362;6.588;2023-05-20T01:02:59;36.49;31.15;42.47;;
76767;Laerm;65707;52.362;6.588;2023-05-20T01:05:26;37.04;31.30;44.06;;
76767;Laerm;65707;52.362;6.588;2023-05-20T01:07:56;36.20;31.04;42.49;;
76767;Laerm;65707;52.362;6.588;2023-05-20T01:10:24;35.86;31.20;39.75;;
76767;Laerm;65707;52.362;6.588;2023-05-20T01:12:59;36.10;30.97;41.99;;
76767;Laerm;65707;52.362;6.588;2023-05-20T01:15:28;36.59;31.20;42.88;;
76767;Laerm;65707;52.362;6.588;2023-05-20T01:18:00;37.13;31.34;42.83;;
76767;Laerm;65707;52.362;6.588;2023-05-20T01:20:32;36.14;30.69;42.00;;
76767;Laerm;65707;52.362;6.588;2023-05-20T01:23:02;36.08;30.69;42.64;;
76767;Laerm;65707;52.362;6.588;2023-05-20T01:25:29;36.89;31.22;43.92;;
76767;Laerm;65707;52.362;6.588;2023-05-20T01:27:56;36.69;31.31;42.93;;
76767;Laerm;65707;52.362;6.588;2023-05-20T01:30:29;36.25;30.85;42.79;;
76767;Laerm;65707;52.362;6.588;2023-05-20T01:33:04;36.49;31.08;42.60;;
76767;Laerm;65707;52.362;6.588;2023-05-20T01:35:31;36.37;31.12;42.63;;
76767;Laerm;65707;52.362;6.588;2023-05-20T01:38:00;36.27;30.97;42.62;;
76767;Laerm;65707;52.362;6.588;2023-05-20T01:40:30;37.08;31.51;44.38;;
76767;Laerm;65707;52.362;6.588;2023-05-20T01:42:59;37.53;31.72;47.18;;
76767;Laerm;65707;52.362;6.588;2023-05-20T01:45:26;36.53;31.14;52.53;;
76767;Laerm;65707;52.362;6.588;2023-05-20T01:47:53;37.00;31.07;42.80;;
76767;Laerm;65707;52.362;6.588;2023-05-20T01:50:22;36.77;31.28;42.68;;
76767;Laerm;65707;52.362;6.588;2023-05-20T01:52:51;36.69;31.36;42.73;;
76767;Laerm;65707;52.362;6.588;2023-05-20T01:55:17;36.34;31.03;42.85;;
76767;Laerm;65707;52.362;6.588;2023-05-20T01:57:46;36.50;30.87;43.42;;
76767;Laerm;65707;52.362;6.588;2023-05-20T02:00:15;37.27;31.27;46.99;;
76767;Laerm;65707;52.362;6.588;2023-05-20T02:02:44;35.98;30.76;42.80;;
76767;Laerm;65707;52.362;6.588;2023-05-20T02:05:12;36.36;31.12;43.25;;
76767;Laerm;65707;52.362;6.588;2023-05-20T02:07:39;37.05;30.91;47.63;;
76767;Laerm;65707;52.362;6.588;2023-05-20T02:10:07;36.39;30.75;42.42;;
76767;Laerm;65707;52.362;6.588;2023-05-20T02:12:36;36.77;31.10;42.81;;
76767;Laerm;65707;52.362;6.588;2023-05-20T02:15:06;36.91;31.28;43.02;;
76767;Laerm;65707;52.362;6.588;2023-05-20T02:17:40;37.66;30.84;46.27;;
76767;Laerm;65707;52.362;6.588;2023-05-20T02:20:20;36.91;31.18;45.75;;
76767;Laerm;65707;52.362;6.588;2023-05-20T02:22:46;37.34;31.25;45.91;;
76767;Laerm;65707;52.362;6.588;2023-05-20T02:25:16;37.42;31.55;47.20;;
76767;Laerm;65707;52.362;6.588;2023-05-20T02:27:42;40.62;32.53;50.36;;
76767;Laerm;65707;52.362;6.588;2023-05-20T02:30:17;39.52;31.84;52.52;;
76767;Laerm;65707;52.362;6.588;2023-05-20T02:32:43;41.63;33.15;52.84;;
76767;Laerm;65707;52.362;6.588;2023-05-20T02:35:10;42.86;32.80;53.56;;
76767;Laerm;65707;52.362;6.588;2023-05-20T02:37:37;42.45;33.67;52.31;;
76767;Laerm;65707;52.362;6.588;2023-05-20T02:40:06;43.41;35.07;53.58;;
76767;Laerm;65707;52.362;6.588;2023-05-20T02:42:34;69.37;33.81;82.09;;
76767;Laerm;65707;52.362;6.588;2023-05-20T02:45:01;44.59;34.87;57.68;;
76767;Laerm;65707;52.362;6.588;2023-05-20T02:47:29;45.20;33.47;57.01;;
76767;Laerm;65707;52.362;6.588;2023-05-20T02:49:56;45.14;33.24;59.19;;
76767;Laerm;65707;52.362;6.588;2023-05-20T02:52:22;45.08;33.24;58.93;;
76767;Laerm;65707;52.362;6.588;2023-05-20T02:54:51;45.90;34.26;58.65;;
76767;Laerm;65707;52.362;6.588;2023-05-20T02:57:21;44.97;33.88;60.40;;
76767;Laerm;65707;52.362;6.588;2023-05-20T02:59:47;44.17;33.80;58.56;;
76767;Laerm;65707;52.362;6.588;2023-05-20T03:02:14;42.70;33.50;57.99;;
76767;Laerm;65707;52.362;6.588;2023-05-20T03:04:45;49.55;34.05;65.26;;
76767;Laerm;65707;52.362;6.588;2023-05-20T03:07:12;50.44;34.46;65.49;;
76767;Laerm;65707;52.362;6.588;2023-05-20T03:09:41;52.56;34.22;67.44;;
76767;Laerm;65707;52.362;6.588;2023-05-20T03:12:08;51.99;33.87;67.92;;
76767;Laerm;65707;52.362;6.588;2023-05-20T03:14:38;50.66;33.14;68.07;;
76767;Laerm;65707;52.362;6.588;2023-05-20T03:17:05;46.44;33.64;63.27;;
76767;Laerm;65707;52.362;6.588;2023-05-20T03:19:32;50.94;34.78;63.08;;
76767;Laerm;65707;52.362;6.588;2023-05-20T03:22:02;46.47;34.69;66.00;;
76767;Laerm;65707;52.362;6.588;2023-05-20T03:24:31;44.53;34.43;55.35;;
76767;Laerm;65707;52.362;6.588;2023-05-20T03:26:59;44.16;33.23;56.28;;
76767;Laerm;65707;52.362;6.588;2023-05-20T03:29:25;40.79;33.62;55.66;;
76767;Laerm;65707;52.362;6.588;2023-05-20T03:31:52;41.38;32.86;60.59;;
76767;Laerm;65707;52.362;6.588;2023-05-20T03:34:21;41.93;33.21;57.63;;
76767;Laerm;65707;52.362;6.588;2023-05-20T03:36:50;45.81;32.68;60.31;;
76767;Laerm;65707;52.362;6.588;2023-05-20T03:39:18;40.14;33.14;63.10;;
76767;Laerm;65707;52.362;6.588;2023-05-20T03:41:44;39.00;33.41;48.81;;
76767;Laerm;65707;52.362;6.588;2023-05-20T03:44:16;40.13;33.37;49.45;;
76767;Laerm;65707;52.362;6.588;2023-05-20T03:46:43;43.06;34.04;54.14;;
76767;Laerm;65707;52.362;6.588;2023-05-20T03:49:10;40.96;33.06;51.57;;
76767;Laerm;65707;52.362;6.588;2023-05-20T03:51:37;40.28;32.81;52.21;;
76767;Laerm;65707;52.362;6.588;2023-05-20T03:54:04;38.84;32.48;48.22;;
76767;Laerm;65707;52.362;6.588;2023-05-20T03:56:34;39.09;33.09;48.78;;
76767;Laerm;65707;52.362;6.588;2023-05-20T03:59:01;40.44;33.55;56.16;;
76767;Laerm;65707;52.362;6.588;2023-05-20T04:01:28;40.24;33.47;52.15;;
76767;Laerm;65707;52.362;6.588;2023-05-20T04:03:55;40.22;33.32;50.05;;
76767;Laerm;65707;52.362;6.588;2023-05-20T04:06:24;47.81;33.20;64.36;;
76767;Laerm;65707;52.362;6.588;2023-05-20T04:08:53;54.96;32.89;78.83;;
76767;Laerm;65707;52.362;6.588;2023-05-20T04:11:19;41.64;33.33;56.19;;
76767;Laerm;65707;52.362;6.588;2023-05-20T04:13:48;41.59;34.16;50.39;;
76767;Laerm;65707;52.362;6.588;2023-05-20T04:16:14;41.60;34.29;56.41;;
76767;Laerm;65707;52.362;6.588;2023-05-20T04:18:43;42.39;34.55;55.90;;
76767;Laerm;65707;52.362;6.588;2023-05-20T04:21:13;39.47;33.95;48.49;;
76767;Laerm;65707;52.362;6.588;2023-05-20T04:23:41;39.09;33.38;45.81;;
76767;Laerm;65707;52.362;6.588;2023-05-20T04:26:07;40.00;33.59;51.56;;
76767;Laerm;65707;52.362;6.588;2023-05-20T04:28:34;42.06;35.49;56.20;;
76767;Laerm;65707;52.362;6.588;2023-05-20T04:31:06;52.12;33.81;70.26;;
76767;Laerm;65707;52.362;6.588;2023-05-20T04:33:33;41.86;33.72;54.20;;
76767;Laerm;65707;52.362;6.588;2023-05-20T04:36:03;40.80;33.08;54.56;;
76767;Laerm;65707;52.362;6.588;2023-05-20T04:38:32;63.19;34.09;80.37;;
76767;Laerm;65707;52.362;6.588;2023-05-20T04:41:02;58.02;33.38;78.09;;
76767;Laerm;65707;52.362;6.588;2023-05-20T04:43:32;41.50;33.90;55.02;;
76767;Laerm;65707;52.362;6.588;2023-05-20T04:45:59;40.15;34.59;53.69;;
76767;Laerm;65707;52.362;6.588;2023-05-20T04:48:32;40.38;34.38;52.63;;
76767;Laerm;65707;52.362;6.588;2023-05-20T04:50:59;42.47;35.52;65.59;;
76767;Laerm;65707;52.362;6.588;2023-05-20T04:53:31;40.57;34.26;55.65;;
76767;Laerm;65707;52.362;6.588;2023-05-20T04:56:01;41.13;34.72;57.45;;
76767;Laerm;65707;52.362;6.588;2023-05-20T04:58:28;41.43;35.08;51.87;;
76767;Laerm;65707;52.362;6.588;2023-05-20T05:00:59;51.72;34.58;72.36;;
76767;Laerm;65707;52.362;6.588;2023-05-20T05:03:25;42.07;34.28;56.18;;
76767;Laerm;65707;52.362;6.588;2023-05-20T05:05:56;42.87;35.33;58.65;;
76767;Laerm;65707;52.362;6.588;2023-05-20T05:08:27;56.22;34.58;75.33;;
76767;Laerm;65707;52.362;6.588;2023-05-20T05:10:56;58.40;33.68;78.07;;
76767;Laerm;65707;52.362;6.588;2023-05-20T05:13:23;41.12;34.66;52.22;;
76767;Laerm;65707;52.362;6.588;2023-05-20T05:15:57;40.68;33.85;52.34;;
76767;Laerm;65707;52.362;6.588;2023-05-20T05:18:27;40.35;33.72;49.67;;
76767;Laerm;65707;52.362;6.588;2023-05-20T05:21:03;41.72;35.35;62.24;;
76767;Laerm;65707;52.362;6.588;2023-05-20T05:23:30;42.24;34.29;55.29;;
76767;Laerm;65707;52.362;6.588;2023-05-20T05:26:00;54.30;34.89;70.84;;
76767;Laerm;65707;52.362;6.588;2023-05-20T05:28:26;39.50;33.86;47.99;;
76767;Laerm;65707;52.362;6.588;2023-05-20T05:30:55;40.37;34.84;51.68;;
76767;Laerm;65707;52.362;6.588;2023-05-20T05:33:25;40.58;34.18;53.33;;
76767;Laerm;65707;52.362;6.588;2023-05-20T05:35:53;43.01;35.28;56.24;;
76767;Laerm;65707;52.362;6.588;2023-05-20T05:38:22;54.74;36.20;74.43;;
76767;Laerm;65707;52.362;6.588;2023-05-20T05:40:49;62.41;36.06;80.88;;
76767;Laerm;65707;52.362;6.588;2023-05-20T05:43:15;40.99;35.33;55.37;;
76767;Laerm;65707;52.362;6.588;2023-05-20T05:45:42;42.71;35.39;54.69;;
76767;Laerm;65707;52.362;6.588;2023-05-20T05:48:09;40.89;34.83;51.15;;
76767;Laerm;65707;52.362;6.588;2023-05-20T05:50:35;58.82;35.70;79.75;;
76767;Laerm;65707;52.362;6.588;2023-05-20T05:53:05;60.65;35.69;81.92;;
76767;Laerm;65707;52.362;6.588;2023-05-20T05:55:36;44.62;36.70;57.63;;
76767;Laerm;65707;52.362;6.588;2023-05-20T05:58:05;43.27;34.42;58.20;;
76767;Laerm;65707;52.362;6.588;2023-05-20T06:00:32;52.62;35.54;71.45;;
76767;Laerm;65707;52.362;6.588;2023-05-20T06:02:59;41.99;34.19;53.28;;
76767;Laerm;65707;52.362;6.588;2023-05-20T06:05:26;41.89;33.87;52.41;;
76767;Laerm;65707;52.362;6.588;2023-05-20T06:07:52;54.36;35.28;73.39;;
76767;Laerm;65707;52.362;6.588;2023-05-20T06:10:22;60.00;36.85;78.44;;
76767;Laerm;65707;52.362;6.588;2023-05-20T06:12:52;42.53;35.94;57.17;;
76767;Laerm;65707;52.362;6.588;2023-05-20T06:15:21;44.86;36.82;58.06;;
76767;Laerm;65707;52.362;6.588;2023-05-20T06:17:48;45.51;34.71;64.57;;
76767;Laerm;65707;52.362;6.588;2023-05-20T06:20:15;57.31;34.60;85.07;;
76767;Laerm;65707;52.362;6.588;2023-05-20T06:22:42;61.14;37.53;80.22;;
76767;Laerm;65707;52.362;6.588;2023-05-20T06:25:09;63.66;37.23;86.51;;
76767;Laerm;65707;52.362;6.588;2023-05-20T06:27:36;42.12;34.41;55.09;;
76767;Laerm;65707;52.362;6.588;2023-05-20T06:30:10;44.26;34.95;60.47;;
76767;Laerm;65707;52.362;6.588;2023-05-20T06:32:37;45.06;36.14;59.45;;
76767;Laerm;65707;52.362;6.588;2023-05-20T06:35:04;50.54;37.38;69.71;;
76767;Laerm;65707;52.362;6.588;2023-05-20T06:37:32;55.16;39.68;74.13;;
76767;Laerm;65707;52.362;6.588;2023-05-20T06:39:59;64.41;38.96;80.48;;
76767;Laerm;65707;52.362;6.588;2023-05-20T06:42:26;43.18;36.55;53.73;;
76767;Laerm;65707;52.362;6.588;2023-05-20T06:44:52;42.81;35.24;55.17;;
76767;Laerm;65707;52.362;6.588;2023-05-20T06:47:20;43.39;36.21;56.60;;
76767;Laerm;65707;52.362;6.588;2023-05-20T06:49:47;59.42;36.53;78.94;;
76767;Laerm;65707;52.362;6.588;2023-05-20T06:52:16;43.33;34.80;62.18;;
76767;Laerm;65707;52.362;6.588;2023-05-20T06:54:45;61.50;36.70;84.21;;
76767;Laerm;65707;52.362;6.588;2023-05-20T06:57:14;44.52;37.28;66.87;;
76767;Laerm;65707;52.362;6.588;2023-05-20T06:59:40;51.98;38.00;70.57;;
76767;Laerm;65707;52.362;6.588;2023-05-20T07:02:10;44.24;36.64;57.68;;
76767;Laerm;65707;52.362;6.588;2023-05-20T07:04:40;44.55;37.74;54.42;;
76767;Laerm;65707;52.362;6.588;2023-05-20T07:07:06;46.43;40.57;62.29;;
76767;Laerm;65707;52.362;6.588;2023-05-20T07:09:33;52.85;38.71;72.80;;
76767;Laerm;65707;52.362;6.588;2023-05-20T07:12:00;58.07;39.30;76.59;;
76767;Laerm;65707;52.362;6.588;2023-05-20T07:14:31;59.93;36.93;79.15;;
76767;Laerm;65707;52.362;6.588;2023-05-20T07:17:03;44.11;38.65;55.51;;
76767;Laerm;65707;52.362;6.588;2023-05-20T07:19:33;45.04;37.59;54.75;;
76767;Laerm;65707;52.362;6.588;2023-05-20T07:22:01;64.62;39.04;79.92;;
76767;Laerm;65707;52.362;6.588;2023-05-20T07:24:28;61.79;38.05;83.50;;
76767;Laerm;65707;52.362;6.588;2023-05-20T07:26:55;47.77;39.64;58.70;;
76767;Laerm;65707;52.362;6.588;2023-05-20T07:29:24;43.80;37.52;54.67;;
76767;Laerm;65707;52.362;6.588;2023-05-20T07:31:51;50.90;38.37;70.46;;
76767;Laerm;65707;52.362;6.588;2023-05-20T07:34:18;44.11;38.05;55.43;;
76767;Laerm;65707;52.362;6.588;2023-05-20T07:36:45;43.91;38.23;56.21;;
76767;Laerm;65707;52.362;6.588;2023-05-20T07:39:14;55.17;38.67;74.11;;
76767;Laerm;65707;52.362;6.588;2023-05-20T07:41:40;58.84;38.32;76.57;;
76767;Laerm;65707;52.362;6.588;2023-05-20T07:44:07;44.25;38.60;58.82;;
76767;Laerm;65707;52.362;6.588;2023-05-20T07:46:40;45.21;38.70;60.56;;
76767;Laerm;65707;52.362;6.588;2023-05-20T07:49:07;44.72;39.62;56.19;;
76767;Laerm;65707;52.362;6.588;2023-05-20T07:51:35;69.13;37.00;82.25;;
76767;Laerm;65707;52.362;6.588;2023-05-20T07:54:02;63.82;38.81;83.55;;
76767;Laerm;65707;52.362;6.588;2023-05-20T07:56:30;44.59;37.83;53.57;;
76767;Laerm;65707;52.362;6.588;2023-05-20T07:58:58;43.97;37.90;56.82;;
76767;Laerm;65707;52.362;6.588;2023-05-20T08:01:28;51.28;37.66;67.10;;
76767;Laerm;65707;52.362;6.588;2023-05-20T08:03:55;44.16;37.05;60.76;;
76767;Laerm;65707;52.362;6.588;2023-05-20T08:06:22;44.89;39.04;55.67;;
76767;Laerm;65707;52.362;6.588;2023-05-20T08:08:49;53.69;40.67;72.87;;
76767;Laerm;65707;52.362;6.588;2023-05-20T08:11:20;64.50;40.33;80.79;;
76767;Laerm;65707;52.362;6.588;2023-05-20T08:13:48;48.86;39.39;77.57;;
76767;Laerm;65707;52.362;6.588;2023-05-20T08:16:15;48.83;39.60;73.40;;
76767;Laerm;65707;52.362;6.588;2023-05-20T08:18:42;49.36;38.05;71.45;;
76767;Laerm;65707;52.362;6.588;2023-05-20T08:21:08;59.32;39.49;80.32;;
76767;Laerm;65707;52.362;6.588;2023-05-20T08:23:35;51.54;39.62;76.28;;
76767;Laerm;65707;52.362;6.588;2023-05-20T08:26:04;63.74;39.30;86.46;;
76767;Laerm;65707;52.362;6.588;2023-05-20T08:28:31;45.34;39.50;61.59;;
76767;Laerm;65707;52.362;6.588;2023-05-20T08:31:04;51.02;39.22;70.29;;
76767;Laerm;65707;52.362;6.588;2023-05-20T08:33:31;45.64;38.57;60.53;;
76767;Laerm;65707;52.362;6.588;2023-05-20T08:36:00;46.11;39.79;62.87;;
76767;Laerm;65707;52.362;6.588;2023-05-20T08:38:27;53.61;41.22;73.83;;
76767;Laerm;65707;52.362;6.588;2023-05-20T08:40:55;64.91;40.36;82.92;;
76767;Laerm;65707;52.362;6.588;2023-05-20T08:43:25;59.95;38.73;81.72;;
76767;Laerm;65707;52.362;6.588;2023-05-20T08:45:52;45.17;39.13;61.95;;
76767;Laerm;65707;52.362;6.588;2023-05-20T08:48:23;46.20;39.91;53.73;;
76767;Laerm;65707;52.362;6.588;2023-05-20T08:50:51;59.59;40.79;80.79;;
76767;Laerm;65707;52.362;6.588;2023-05-20T08:53:21;50.34;40.33;66.31;;
76767;Laerm;65707;52.362;6.588;2023-05-20T08:55:53;45.21;38.76;57.86;;
76767;Laerm;65707;52.362;6.588;2023-05-20T08:58:22;45.34;39.91;62.46;;
76767;Laerm;65707;52.362;6.588;2023-05-20T09:00:50;52.52;41.97;70.39;;
76767;Laerm;65707;52.362;6.588;2023-05-20T09:03:17;45.45;38.77;54.28;;
76767;Laerm;65707;52.362;6.588;2023-05-20T09:05:48;69.62;39.58;84.69;;
76767;Laerm;65707;52.362;6.588;2023-05-20T09:08:24;54.70;40.94;73.76;;
76767;Laerm;65707;52.362;6.588;2023-05-20T09:10:54;61.30;40.18;77.74;;
76767;Laerm;65707;52.362;6.588;2023-05-20T09:13:23;49.46;37.42;71.72;;
76767;Laerm;65707;52.362;6.588;2023-05-20T09:15:49;46.29;39.33;59.29;;
76767;Laerm;65707;52.362;6.588;2023-05-20T09:18:21;46.24;39.05;65.07;;
76767;Laerm;65707;52.362;6.588;2023-05-20T09:20:52;63.47;40.00;80.54;;
76767;Laerm;65707;52.362;6.588;2023-05-20T09:23:20;60.76;40.02;84.40;;
76767;Laerm;65707;52.362;6.588;2023-05-20T09:25:53;46.57;38.73;64.30;;
76767;Laerm;65707;52.362;6.588;2023-05-20T09:28:23;46.59;39.96;67.56;;
76767;Laerm;65707;52.362;6.588;2023-05-20T09:30:50;46.56;40.68;65.88;;
76767;Laerm;65707;52.362;6.588;2023-05-20T09:33:17;46.22;38.71;69.45;;
76767;Laerm;65707;52.362;6.588;2023-05-20T09:35:43;50.34;39.05;67.91;;
76767;Laerm;65707;52.362;6.588;2023-05-20T09:38:17;53.88;39.40;74.46;;
76767;Laerm;65707;52.362;6.588;2023-05-20T09:40:47;60.13;40.34;78.17;;
76767;Laerm;65707;52.362;6.588;2023-05-20T09:43:20;45.64;39.31;62.31;;
76767;Laerm;65707;52.362;6.588;2023-05-20T09:45:47;45.34;38.92;57.75;;
76767;Laerm;65707;52.362;6.588;2023-05-20T09:48:14;62.77;38.85;82.11;;
76767;Laerm;65707;52.362;6.588;2023-05-20T09:50:42;66.67;41.44;83.16;;
76767;Laerm;65707;52.362;6.588;2023-05-20T09:53:16;61.37;40.13;80.55;;
76767;Laerm;65707;52.362;6.588;2023-05-20T09:55:44;48.30;42.43;58.58;;
76767;Laerm;65707;52.362;6.588;2023-05-20T09:58:12;46.45;39.88;56.58;;
76767;Laerm;65707;52.362;6.588;2023-05-20T10:00:40;51.15;39.93;67.01;;
76767;Laerm;65707;52.362;6.588;2023-05-20T10:03:06;49.20;41.06;63.27;;
76767;Laerm;65707;52.362;6.588;2023-05-20T10:05:41;51.94;41.60;65.66;;
76767;Laerm;65707;52.362;6.588;2023-05-20T10:08:30;53.04;40.72;71.93;;
76767;Laerm;65707;52.362;6.588;2023-05-20T10:11:11;60.44;40.15;78.85;;
76767;Laerm;65707;52.362;6.588;2023-05-20T10:14:01;46.64;38.91;70.93;;
76767;Laerm;65707;52.362;6.588;2023-05-20T10:16:45;45.27;38.17;56.45;;
76767;Laerm;65707;52.362;6.588;2023-05-20T10:19:29;46.87;40.54;67.83;;
76767;Laerm;65707;52.362;6.588;2023-05-20T10:22:02;60.67;40.82;80.94;;
76767;Laerm;65707;52.362;6.588;2023-05-20T10:24:35;54.81;40.16;74.14;;
76767;Laerm;65707;52.362;6.588;2023-05-20T10:27:08;47.88;40.54;68.64;;
76767;Laerm;65707;52.362;6.588;2023-05-20T10:29:48;50.06;38.95;63.57;;
76767;Laerm;65707;52.362;6.588;2023-05-20T10:32:24;50.89;39.41;69.71;;
76767;Laerm;65707;52.362;6.588;2023-05-20T10:34:58;47.11;39.99;64.68;;
76767;Laerm;65707;52.362;6.588;2023-05-20T10:37:30;54.42;39.70;73.36;;
76767;Laerm;65707;52.362;6.588;2023-05-20T10:40:11;64.23;38.95;81.88;;
76767;Laerm;65707;52.362;6.588;2023-05-20T10:42:39;46.20;39.59;56.73;;
76767;Laerm;65707;52.362;6.588;2023-05-20T10:45:10;46.06;39.17;58.91;;
76767;Laerm;65707;52.362;6.588;2023-05-20T10:47:52;46.23;40.07;57.62;;
76767;Laerm;65707;52.362;6.588;2023-05-20T10:50:32;58.64;38.38;77.83;;
76767;Laerm;65707;52.362;6.588;2023-05-20T10:53:04;58.91;39.86;79.11;;
76767;Laerm;65707;52.362;6.588;2023-05-20T10:55:48;47.04;41.61;60.73;;
76767;Laerm;65707;52.362;6.588;2023-05-20T10:58:17;49.56;41.13;62.33;;
76767;Laerm;65707;52.362;6.588;2023-05-20T11:00:46;52.33;40.31;67.92;;
76767;Laerm;65707;52.362;6.588;2023-05-20T11:03:15;45.82;40.20;65.25;;
76767;Laerm;65707;52.362;6.588;2023-05-20T11:05:44;70.13;42.00;84.64;;
76767;Laerm;65707;52.362;6.588;2023-05-20T11:08:11;55.03;40.42;73.67;;
76767;Laerm;65707;52.362;6.588;2023-05-20T11:10:41;61.14;40.17;79.87;;
76767;Laerm;65707;52.362;6.588;2023-05-20T11:13:12;47.10;40.99;58.03;;
76767;Laerm;65707;52.362;6.588;2023-05-20T11:15:42;46.01;38.79;60.40;;
76767;Laerm;65707;52.362;6.588;2023-05-20T11:18:10;46.10;39.47;56.04;;
76767;Laerm;65707;52.362;6.588;2023-05-20T11:20:41;59.33;40.61;80.38;;
76767;Laerm;65707;52.362;6.588;2023-05-20T11:23:12;50.61;39.48;67.63;;
76767;Laerm;65707;52.362;6.588;2023-05-20T11:25:41;55.24;39.73;76.17;;
76767;Laerm;65707;52.362;6.588;2023-05-20T11:28:18;48.75;40.68;70.91;;
76767;Laerm;65707;52.362;6.588;2023-05-20T11:30:46;50.70;40.92;67.28;;
76767;Laerm;65707;52.362;6.588;2023-05-20T11:33:15;47.64;39.65;59.50;;
76767;Laerm;65707;52.362;6.588;2023-05-20T11:35:45;44.46;38.54;56.76;;
76767;Laerm;65707;52.362;6.588;2023-05-20T11:38:14;55.15;39.69;73.73;;
76767;Laerm;65707;52.362;6.588;2023-05-20T11:40:53;61.42;39.58;77.75;;
76767;Laerm;65707;52.362;6.588;2023-05-20T11:43:22;59.22;39.48;78.71;;
76767;Laerm;65707;52.362;6.588;2023-05-20T11:45:53;45.56;39.24;61.73;;
76767;Laerm;65707;52.362;6.588;2023-05-20T11:48:20;45.35;39.06;63.74;;
76767;Laerm;65707;52.362;6.588;2023-05-20T11:50:49;57.83;39.00;76.51;;
76767;Laerm;65707;52.362;6.588;2023-05-20T11:53:21;59.46;39.31;78.37;;
76767;Laerm;65707;52.362;6.588;2023-05-20T11:55:52;45.37;38.91;60.67;;
76767;Laerm;65707;52.362;6.588;2023-05-20T11:58:22;48.03;40.03;66.84;;
76767;Laerm;65707;52.362;6.588;2023-05-20T12:00:51;70.60;41.90;85.65;;
76767;Laerm;65707;52.362;6.588;2023-05-20T12:03:18;46.37;38.26;55.87;;
76767;Laerm;65707;52.362;6.588;2023-05-20T12:05:45;47.12;40.15;64.30;;
76767;Laerm;65707;52.362;6.588;2023-05-20T12:08:14;52.99;38.84;71.07;;
76767;Laerm;65707;52.362;6.588;2023-05-20T12:10:50;58.29;36.56;76.82;;
76767;Laerm;65707;52.362;6.588;2023-05-20T12:13:16;52.67;39.99;71.36;;
76767;Laerm;65707;52.362;6.588;2023-05-20T12:15:47;44.49;39.56;54.13;;
76767;Laerm;65707;52.362;6.588;2023-05-20T12:18:17;45.03;37.20;58.21;;
76767;Laerm;65707;52.362;6.588;2023-05-20T12:20:43;60.93;38.83;78.53;;
76767;Laerm;65707;52.362;6.588;2023-05-20T12:23:10;47.35;36.96;63.07;;
76767;Laerm;65707;52.362;6.588;2023-05-20T12:25:37;57.69;39.23;74.68;;
76767;Laerm;65707;52.362;6.588;2023-05-20T12:28:05;44.87;37.84;58.99;;
76767;Laerm;65707;52.362;6.588;2023-05-20T12:30:34;50.14;39.90;66.56;;
76767;Laerm;65707;52.362;6.588;2023-05-20T12:33:04;51.19;40.36;67.58;;
76767;Laerm;65707;52.362;6.588;2023-05-20T12:35:37;49.05;38.37;66.63;;
76767;Laerm;65707;52.362;6.588;2023-05-20T12:38:07;55.53;40.41;74.64;;
76767;Laerm;65707;52.362;6.588;2023-05-20T12:40:38;63.94;38.01;81.44;;
76767;Laerm;65707;52.362;6.588;2023-05-20T12:43:06;43.43;37.57;55.99;;
76767;Laerm;65707;52.362;6.588;2023-05-20T12:45:33;44.89;38.29;59.28;;
76767;Laerm;65707;52.362;6.588;2023-05-20T12:48:00;43.23;36.85;54.00;;
76767;Laerm;65707;52.362;6.588;2023-05-20T12:50:28;58.58;39.50;78.26;;
76767;Laerm;65707;52.362;6.588;2023-05-20T12:52:57;47.13;40.38;59.59;;
76767;Laerm;65707;52.362;6.588;2023-05-20T12:55:27;45.19;38.69;56.33;;
76767;Laerm;65707;52.362;6.588;2023-05-20T12:57:54;44.55;37.76;52.55;;
76767;Laerm;65707;52.362;6.588;2023-05-20T13:00:22;54.16;39.37;72.96;;
76767;Laerm;65707;52.362;6.588;2023-05-20T13:02:49;47.22;36.80;61.80;;
76767;Laerm;65707;52.362;6.588;2023-05-20T13:05:19;52.63;41.12;74.18;;
76767;Laerm;65707;52.362;6.588;2023-05-20T13:07:48;53.98;38.87;74.20;;
76767;Laerm;65707;52.362;6.588;2023-05-20T13:10:15;58.87;39.51;76.77;;
76767;Laerm;65707;52.362;6.588;2023-05-20T13:12:42;45.37;37.95;58.45;;
76767;Laerm;65707;52.362;6.588;2023-05-20T13:15:18;45.64;38.09;57.78;;
76767;Laerm;65707;52.362;6.588;2023-05-20T13:17:46;45.79;38.41;59.33;;
76767;Laerm;65707;52.362;6.588;2023-05-20T13:20:12;59.90;38.80;78.47;;
76767;Laerm;65707;52.362;6.588;2023-05-20T13:22:39;45.03;40.51;54.29;;
76767;Laerm;65707;52.362;6.588;2023-05-20T13:25:07;59.42;37.83;79.18;;
76767;Laerm;65707;52.362;6.588;2023-05-20T13:27:36;46.55;37.12;70.45;;
76767;Laerm;65707;52.362;6.588;2023-05-20T13:30:05;62.61;38.34;78.39;;
76767;Laerm;65707;52.362;6.588;2023-05-20T13:32:34;44.87;37.49;61.12;;
76767;Laerm;65707;52.362;6.588;2023-05-20T13:35:06;46.33;39.04;66.46;;
76767;Laerm;65707;52.362;6.588;2023-05-20T13:37:33;46.74;41.50;59.08;;
76767;Laerm;65707;52.362;6.588;2023-05-20T13:40:00;53.33;39.52;71.54;;
76767;Laerm;65707;52.362;6.588;2023-05-20T13:42:27;60.01;39.98;77.93;;
76767;Laerm;65707;52.362;6.588;2023-05-20T13:44:54;44.88;38.38;54.75;;
76767;Laerm;65707;52.362;6.588;2023-05-20T13:47:20;44.95;38.11;63.87;;
76767;Laerm;65707;52.362;6.588;2023-05-20T13:49:47;61.35;37.92;81.02;;
76767;Laerm;65707;52.362;6.588;2023-05-20T13:52:17;45.04;38.38;53.81;;
76767;Laerm;65707;52.362;6.588;2023-05-20T13:54:43;61.07;39.10;79.77;;